sensor_id;sensor_type;location;lat;lon;timestamp;temperature;humidity
20929;DHT22;21895;47.072;15.132;2023-10-09T00:02:09;13.10;99.90
20929;DHT22;21895;47.072;15.132;2023-10-09T00:04:38;13.10;99.90
20929;DHT22;21895;47.072;15.132;2023-10-09T00:07:07;13.00;99.90
20929;DHT22;21895;47.072;15.132;2023-10-09T00:09:35;13.00;99.90
20929;DHT22;21895;47.072;15.132;2023-10-09T00:12:19;13.00;99.90
20929;DHT22;21895;47.072;15.132;2023-10-09T00:14:51;13.00;99.90
20929;DHT22;21895;47.072;15.132;2023-10-09T00:17:21;12.90;99.90
20929;DHT22;21895;47.072;15.132;2023-10-09T00:19:49;12.90;99.90
20929;DHT22;21895;47.072;15.132;2023-10-09T00:22:17;12.90;99.90
20929;DHT22;21895;47.072;15.132;2023-10-09T00:24:50;12.80;99.90
20929;DHT22;21895;47.072;15.132;2023-10-09T00:27:42;12.80;99.90
20929;DHT22;21895;47.072;15.132;2023-10-09T00:30:14;12.90;99.90
20929;DHT22;21895;47.072;15.132;2023-10-09T00:32:47;12.90;99.90
20929;DHT22;21895;47.072;15.132;2023-10-09T00:35:49;12.90;99.90
20929;DHT22;21895;47.072;15.132;2023-10-09T00:38:20;12.80;99.90
20929;DHT22;21895;47.072;15.132;2023-10-09T00:40:48;12.90;99.90
20929;DHT22;21895;47.072;15.132;2023-10-09T00:43:34;12.80;99.90
20929;DHT22;21895;47.072;15.132;2023-10-09T00:46:03;12.70;99.90
20929;DHT22;21895;47.072;15.132;2023-10-09T00:48:55;12.80;99.90
20929;DHT22;21895;47.072;15.132;2023-10-09T00:51:29;12.80;99.90
20929;DHT22;21895;47.072;15.132;2023-10-09T00:54:05;12.70;99.90
20929;DHT22;21895;47.072;15.132;2023-10-09T00:56:34;12.70;99.90
20929;DHT22;21895;47.072;15.132;2023-10-09T00:59:05;12.60;99.90
20929;DHT22;21895;47.072;15.132;2023-10-09T01:01:46;12.70;99.90
20929;DHT22;21895;47.072;15.132;2023-10-09T01:04:30;12.70;99.90
20929;DHT22;21895;47.072;15.132;2023-10-09T01:07:05;12.80;99.90
20929;DHT22;21895;47.072;15.132;2023-10-09T01:09:36;12.70;99.90
20929;DHT22;21895;47.072;15.132;2023-10-09T01:12:04;12.60;99.90
20929;DHT22;21895;47.072;15.132;2023-10-09T01:14:31;12.60;99.90
20929;DHT22;21895;47.072;15.132;2023-10-09T01:17:07;12.60;99.90
20929;DHT22;21895;47.072;15.132;2023-10-09T01:19:38;12.60;99.90
20929;DHT22;21895;47.072;15.132;2023-10-09T01:22:04;12.60;99.90
20929;DHT22;21895;47.072;15.132;2023-10-09T01:24:39;12.60;99.90
20929;DHT22;21895;47.072;15.132;2023-10-09T01:27:06;12.60;99.90
20929;DHT22;21895;47.072;15.132;2023-10-09T01:29:43;12.50;99.90
20929;DHT22;21895;47.072;15.132;2023-10-09T01:32:12;12.50;99.90
20929;DHT22;21895;47.072;15.132;2023-10-09T01:34:45;12.60;99.90
20929;DHT22;21895;47.072;15.132;2023-10-09T01:37:16;12.60;99.90
20929;DHT22;21895;47.072;15.132;2023-10-09T01:40:05;12.60;99.90
20929;DHT22;21895;47.072;15.132;2023-10-09T01:42:51;12.60;99.90
20929;DHT22;21895;47.072;15.132;2023-10-09T01:45:17;12.60;99.90
20929;DHT22;21895;47.072;15.132;2023-10-09T01:47:47;12.60;99.90
20929;DHT22;21895;47.072;15.132;2023-10-09T01:50:20;12.70;99.90
20929;DHT22;21895;47.072;15.132;2023-10-09T01:52:50;12.70;99.90
20929;DHT22;21895;47.072;15.132;2023-10-09T01:55:17;12.70;99.90
20929;DHT22;21895;47.072;15.132;2023-10-09T01:58:01;12.70;99.90
20929;DHT22;21895;47.072;15.132;2023-10-09T02:00:34;12.60;99.90
20929;DHT22;21895;47.072;15.132;2023-10-09T02:03:08;12.60;99.90
20929;DHT22;21895;47.072;15.132;2023-10-09T02:05:38;12.60;99.90
20929;DHT22;21895;47.072;15.132;2023-10-09T02:08:05;12.70;99.90
20929;DHT22;21895;47.072;15.132;2023-10-09T02:10:32;12.70;99.90
20929;DHT22;21895;47.072;15.132;2023-10-09T02:13:06;12.70;99.90
20929;DHT22;21895;47.072;15.132;2023-10-09T02:15:39;12.80;99.90
20929;DHT22;21895;47.072;15.132;2023-10-09T02:18:12;12.80;99.90
20929;DHT22;21895;47.072;15.132;2023-10-09T02:21:14;12.80;99.90
20929;DHT22;21895;47.072;15.132;2023-10-09T02:23:40;12.70;99.90
20929;DHT22;21895;47.072;15.132;2023-10-09T02:26:08;12.80;99.90
20929;DHT22;21895;47.072;15.132;2023-10-09T02:28:57;12.80;99.90
20929;DHT22;21895;47.072;15.132;2023-10-09T02:31:31;12.70;99.90
20929;DHT22;21895;47.072;15.132;2023-10-09T02:34:07;12.80;99.90
20929;DHT22;21895;47.072;15.132;2023-10-09T02:36:37;12.70;99.90
20929;DHT22;21895;47.072;15.132;2023-10-09T02:39:08;12.70;99.90
20929;DHT22;21895;47.072;15.132;2023-10-09T02:41:52;12.70;99.90
20929;DHT22;21895;47.072;15.132;2023-10-09T02:44:28;12.70;99.90
20929;DHT22;21895;47.072;15.132;2023-10-09T02:47:04;12.70;99.90
20929;DHT22;21895;47.072;15.132;2023-10-09T02:49:38;12.70;99.90
20929;DHT22;21895;47.072;15.132;2023-10-09T02:52:07;12.70;99.90
20929;DHT22;21895;47.072;15.132;2023-10-09T02:54:35;12.80;99.90
20929;DHT22;21895;47.072;15.132;2023-10-09T02:57:02;12.80;99.90
20929;DHT22;21895;47.072;15.132;2023-10-09T02:59:34;12.70;99.90
20929;DHT22;21895;47.072;15.132;2023-10-09T03:02:04;12.70;99.90
20929;DHT22;21895;47.072;15.132;2023-10-09T03:04:31;12.70;99.90
20929;DHT22;21895;47.072;15.132;2023-10-09T03:06:58;12.70;99.90
20929;DHT22;21895;47.072;15.132;2023-10-09T03:09:26;12.60;99.90
20929;DHT22;21895;47.072;15.132;2023-10-09T03:11:55;12.60;99.90
20929;DHT22;21895;47.072;15.132;2023-10-09T03:14:32;12.60;99.90
20929;DHT22;21895;47.072;15.132;2023-10-09T03:17:01;12.60;99.90
20929;DHT22;21895;47.072;15.132;2023-10-09T03:19:29;12.50;99.90
20929;DHT22;21895;47.072;15.132;2023-10-09T03:21:57;12.60;99.90
20929;DHT22;21895;47.072;15.132;2023-10-09T03:24:27;12.70;99.90
20929;DHT22;21895;47.072;15.132;2023-10-09T03:26:54;12.70;99.90
20929;DHT22;21895;47.072;15.132;2023-10-09T03:29:24;12.60;99.90
20929;DHT22;21895;47.072;15.132;2023-10-09T03:31:51;12.70;99.90
20929;DHT22;21895;47.072;15.132;2023-10-09T03:34:17;12.70;99.90
20929;DHT22;21895;47.072;15.132;2023-10-09T03:36:45;12.70;99.90
20929;DHT22;21895;47.072;15.132;2023-10-09T03:39:14;12.70;99.90
20929;DHT22;21895;47.072;15.132;2023-10-09T03:41:59;12.60;99.90
20929;DHT22;21895;47.072;15.132;2023-10-09T03:44:26;12.60;99.90
20929;DHT22;21895;47.072;15.132;2023-10-09T03:46:56;12.60;99.90
20929;DHT22;21895;47.072;15.132;2023-10-09T03:49:22;12.70;99.90
20929;DHT22;21895;47.072;15.132;2023-10-09T03:51:52;12.70;99.90
20929;DHT22;21895;47.072;15.132;2023-10-09T03:54:19;12.60;99.90
20929;DHT22;21895;47.072;15.132;2023-10-09T03:56:49;12.50;99.90
20929;DHT22;21895;47.072;15.132;2023-10-09T03:59:20;12.50;99.90
20929;DHT22;21895;47.072;15.132;2023-10-09T04:01:48;12.60;99.90
20929;DHT22;21895;47.072;15.132;2023-10-09T04:04:16;12.60;99.90
20929;DHT22;21895;47.072;15.132;2023-10-09T04:06:43;12.60;99.90
20929;DHT22;21895;47.072;15.132;2023-10-09T04:09:12;12.50;99.90
20929;DHT22;21895;47.072;15.132;2023-10-09T04:11:49;12.50;99.90
20929;DHT22;21895;47.072;15.132;2023-10-09T04:14:46;12.50;99.90
20929;DHT22;21895;47.072;15.132;2023-10-09T04:17:23;12.50;99.90
20929;DHT22;21895;47.072;15.132;2023-10-09T04:20:00;12.40;99.90
20929;DHT22;21895;47.072;15.132;2023-10-09T04:22:46;12.40;99.90
20929;DHT22;21895;47.072;15.132;2023-10-09T04:25:32;12.50;99.90
20929;DHT22;21895;47.072;15.132;2023-10-09T04:28:09;12.50;99.90
20929;DHT22;21895;47.072;15.132;2023-10-09T04:30:41;12.40;99.90
20929;DHT22;21895;47.072;15.132;2023-10-09T04:33:13;12.50;99.90
20929;DHT22;21895;47.072;15.132;2023-10-09T04:36:02;12.50;99.90
20929;DHT22;21895;47.072;15.132;2023-10-09T04:38:52;12.50;99.90
20929;DHT22;21895;47.072;15.132;2023-10-09T04:41:42;12.50;99.90
20929;DHT22;21895;47.072;15.132;2023-10-09T04:44:11;12.50;99.90
20929;DHT22;21895;47.072;15.132;2023-10-09T04:46:47;12.50;99.90
20929;DHT22;21895;47.072;15.132;2023-10-09T04:49:34;12.50;99.90
20929;DHT22;21895;47.072;15.132;2023-10-09T04:52:14;12.50;99.90
20929;DHT22;21895;47.072;15.132;2023-10-09T04:55:42;12.40;99.90
20929;DHT22;21895;47.072;15.132;2023-10-09T04:58:22;12.50;99.90
20929;DHT22;21895;47.072;15.132;2023-10-09T05:00:53;12.50;99.90
20929;DHT22;21895;47.072;15.132;2023-10-09T05:03:25;12.50;99.90
20929;DHT22;21895;47.072;15.132;2023-10-09T05:06:07;12.50;99.90
20929;DHT22;21895;47.072;15.132;2023-10-09T05:08:52;12.60;99.90
20929;DHT22;21895;47.072;15.132;2023-10-09T05:11:22;12.60;99.90
20929;DHT22;21895;47.072;15.132;2023-10-09T05:14:20;12.60;99.90
20929;DHT22;21895;47.072;15.132;2023-10-09T05:17:05;12.60;99.90
20929;DHT22;21895;47.072;15.132;2023-10-09T05:19:41;12.50;99.90
20929;DHT22;21895;47.072;15.132;2023-10-09T05:22:11;12.60;99.90
20929;DHT22;21895;47.072;15.132;2023-10-09T05:25:25;12.50;99.90
20929;DHT22;21895;47.072;15.132;2023-10-09T05:28:10;12.60;99.90
20929;DHT22;21895;47.072;15.132;2023-10-09T05:30:58;12.60;99.90
20929;DHT22;21895;47.072;15.132;2023-10-09T05:33:59;12.60;99.90
20929;DHT22;21895;47.072;15.132;2023-10-09T05:36:27;12.60;99.90
20929;DHT22;21895;47.072;15.132;2023-10-09T05:38:54;12.60;99.90
20929;DHT22;21895;47.072;15.132;2023-10-09T05:41:39;12.60;99.90
20929;DHT22;21895;47.072;15.132;2023-10-09T05:44:18;12.60;99.90
20929;DHT22;21895;47.072;15.132;2023-10-09T05:47:03;12.60;99.90
20929;DHT22;21895;47.072;15.132;2023-10-09T05:49:55;12.60;99.90
20929;DHT22;21895;47.072;15.132;2023-10-09T05:52:33;12.60;99.90
20929;DHT22;21895;47.072;15.132;2023-10-09T05:55:06;12.60;99.90
20929;DHT22;21895;47.072;15.132;2023-10-09T05:57:45;12.60;99.90
20929;DHT22;21895;47.072;15.132;2023-10-09T06:00:30;12.60;99.90
20929;DHT22;21895;47.072;15.132;2023-10-09T06:03:15;12.60;99.90
20929;DHT22;21895;47.072;15.132;2023-10-09T06:05:49;12.60;99.90
20929;DHT22;21895;47.072;15.132;2023-10-09T06:08:23;12.60;99.90
20929;DHT22;21895;47.072;15.132;2023-10-09T06:10:53;12.60;99.90
20929;DHT22;21895;47.072;15.132;2023-10-09T06:14:04;12.60;99.90
20929;DHT22;21895;47.072;15.132;2023-10-09T06:16:34;12.60;99.90
20929;DHT22;21895;47.072;15.132;2023-10-09T06:19:19;12.70;99.90
20929;DHT22;21895;47.072;15.132;2023-10-09T06:21:46;12.70;99.90
20929;DHT22;21895;47.072;15.132;2023-10-09T06:24:19;12.80;99.90
20929;DHT22;21895;47.072;15.132;2023-10-09T06:26:49;12.90;99.90
20929;DHT22;21895;47.072;15.132;2023-10-09T06:29:29;13.00;99.90
20929;DHT22;21895;47.072;15.132;2023-10-09T06:32:02;13.20;99.90
20929;DHT22;21895;47.072;15.132;2023-10-09T06:34:51;13.20;99.90
20929;DHT22;21895;47.072;15.132;2023-10-09T06:37:48;13.20;99.90
20929;DHT22;21895;47.072;15.132;2023-10-09T06:40:37;13.40;99.90
20929;DHT22;21895;47.072;15.132;2023-10-09T06:43:07;13.50;99.90
20929;DHT22;21895;47.072;15.132;2023-10-09T06:45:45;13.50;99.90
20929;DHT22;21895;47.072;15.132;2023-10-09T06:48:27;13.60;99.90
20929;DHT22;21895;47.072;15.132;2023-10-09T06:51:06;13.60;99.90
20929;DHT22;21895;47.072;15.132;2023-10-09T06:54:41;13.60;99.90
20929;DHT22;21895;47.072;15.132;2023-10-09T06:57:16;13.60;99.90
20929;DHT22;21895;47.072;15.132;2023-10-09T07:00:10;13.70;99.90
20929;DHT22;21895;47.072;15.132;2023-10-09T07:02:55;13.70;99.90
20929;DHT22;21895;47.072;15.132;2023-10-09T07:05:25;13.70;99.90
20929;DHT22;21895;47.072;15.132;2023-10-09T07:08:04;13.70;99.90
20929;DHT22;21895;47.072;15.132;2023-10-09T07:10:54;13.70;99.90
20929;DHT22;21895;47.072;15.132;2023-10-09T07:13:46;13.70;99.90
20929;DHT22;21895;47.072;15.132;2023-10-09T07:16:22;13.70;99.90
20929;DHT22;21895;47.072;15.132;2023-10-09T07:19:06;13.80;99.90
20929;DHT22;21895;47.072;15.132;2023-10-09T07:21:50;13.90;99.90
20929;DHT22;21895;47.072;15.132;2023-10-09T07:24:20;13.90;99.90
20929;DHT22;21895;47.072;15.132;2023-10-09T07:27:07;13.90;99.90
20929;DHT22;21895;47.072;15.132;2023-10-09T07:29:37;13.80;99.90
20929;DHT22;21895;47.072;15.132;2023-10-09T07:32:14;13.80;99.90
20929;DHT22;21895;47.072;15.132;2023-10-09T07:34:47;13.80;99.90
20929;DHT22;21895;47.072;15.132;2023-10-09T07:37:23;13.90;99.90
20929;DHT22;21895;47.072;15.132;2023-10-09T07:40:02;14.10;99.90
20929;DHT22;21895;47.072;15.132;2023-10-09T07:42:33;14.10;99.90
20929;DHT22;21895;47.072;15.132;2023-10-09T07:45:03;14.00;99.90
20929;DHT22;21895;47.072;15.132;2023-10-09T07:48:56;14.10;99.90
20929;DHT22;21895;47.072;15.132;2023-10-09T07:51:26;14.00;99.90
20929;DHT22;21895;47.072;15.132;2023-10-09T07:53:59;14.20;99.90
20929;DHT22;21895;47.072;15.132;2023-10-09T07:56:35;14.30;99.90
20929;DHT22;21895;47.072;15.132;2023-10-09T07:59:08;14.30;99.90
20929;DHT22;21895;47.072;15.132;2023-10-09T08:01:43;14.20;99.90
20929;DHT22;21895;47.072;15.132;2023-10-09T08:04:26;14.30;99.90
20929;DHT22;21895;47.072;15.132;2023-10-09T08:07:09;14.30;99.90
20929;DHT22;21895;47.072;15.132;2023-10-09T08:10:39;14.50;99.90
20929;DHT22;21895;47.072;15.132;2023-10-09T08:13:23;14.40;99.90
20929;DHT22;21895;47.072;15.132;2023-10-09T08:16:15;14.40;99.90
20929;DHT22;21895;47.072;15.132;2023-10-09T08:18:49;14.30;99.90
20929;DHT22;21895;47.072;15.132;2023-10-09T08:21:22;14.50;99.90
20929;DHT22;21895;47.072;15.132;2023-10-09T08:24:08;14.50;99.90
20929;DHT22;21895;47.072;15.132;2023-10-09T08:27:01;14.60;99.90
20929;DHT22;21895;47.072;15.132;2023-10-09T08:30:34;14.70;99.90
20929;DHT22;21895;47.072;15.132;2023-10-09T08:33:15;14.80;99.90
20929;DHT22;21895;47.072;15.132;2023-10-09T08:35:55;14.80;99.90
20929;DHT22;21895;47.072;15.132;2023-10-09T08:38:28;15.00;99.90
20929;DHT22;21895;47.072;15.132;2023-10-09T08:41:07;15.10;99.90
20929;DHT22;21895;47.072;15.132;2023-10-09T08:43:50;15.30;99.90
20929;DHT22;21895;47.072;15.132;2023-10-09T08:46:24;15.30;99.90
20929;DHT22;21895;47.072;15.132;2023-10-09T08:48:59;15.40;99.90
20929;DHT22;21895;47.072;15.132;2023-10-09T08:51:27;15.60;99.90
20929;DHT22;21895;47.072;15.132;2023-10-09T08:53:54;15.80;99.90
20929;DHT22;21895;47.072;15.132;2023-10-09T08:56:22;16.10;99.90
20929;DHT22;21895;47.072;15.132;2023-10-09T08:58:58;16.20;99.90
20929;DHT22;21895;47.072;15.132;2023-10-09T09:01:25;16.10;99.90
20929;DHT22;21895;47.072;15.132;2023-10-09T09:03:54;16.00;99.90
20929;DHT22;21895;47.072;15.132;2023-10-09T09:06:23;15.90;99.90
20929;DHT22;21895;47.072;15.132;2023-10-09T09:08:51;15.70;99.90
20929;DHT22;21895;47.072;15.132;2023-10-09T09:11:25;15.70;99.90
20929;DHT22;21895;47.072;15.132;2023-10-09T09:14:03;15.70;99.90
20929;DHT22;21895;47.072;15.132;2023-10-09T09:16:33;15.80;99.90
20929;DHT22;21895;47.072;15.132;2023-10-09T09:19:06;15.80;99.90
20929;DHT22;21895;47.072;15.132;2023-10-09T09:21:37;15.80;99.90
20929;DHT22;21895;47.072;15.132;2023-10-09T09:24:10;15.60;99.90
20929;DHT22;21895;47.072;15.132;2023-10-09T09:27:01;15.60;99.90
20929;DHT22;21895;47.072;15.132;2023-10-09T09:29:45;15.60;99.90
20929;DHT22;21895;47.072;15.132;2023-10-09T09:32:28;15.70;99.90
20929;DHT22;21895;47.072;15.132;2023-10-09T09:35:02;15.70;99.90
20929;DHT22;21895;47.072;15.132;2023-10-09T09:37:32;15.80;99.90
20929;DHT22;21895;47.072;15.132;2023-10-09T09:40:09;15.80;99.90
20929;DHT22;21895;47.072;15.132;2023-10-09T09:43:00;15.90;99.90
20929;DHT22;21895;47.072;15.132;2023-10-09T09:45:39;15.90;99.90
20929;DHT22;21895;47.072;15.132;2023-10-09T09:48:13;15.90;99.90
20929;DHT22;21895;47.072;15.132;2023-10-09T09:50:42;15.90;99.90
20929;DHT22;21895;47.072;15.132;2023-10-09T09:53:15;15.80;99.90
20929;DHT22;21895;47.072;15.132;2023-10-09T09:55:52;15.90;99.90
20929;DHT22;21895;47.072;15.132;2023-10-09T09:58:26;15.80;99.90
20929;DHT22;21895;47.072;15.132;2023-10-09T10:01:10;15.70;99.90
20929;DHT22;21895;47.072;15.132;2023-10-09T10:04:07;15.80;99.90
20929;DHT22;21895;47.072;15.132;2023-10-09T10:06:43;15.90;99.90
20929;DHT22;21895;47.072;15.132;2023-10-09T10:09:38;16.00;99.90
20929;DHT22;21895;47.072;15.132;2023-10-09T10:12:11;16.10;99.90
20929;DHT22;21895;47.072;15.132;2023-10-09T10:14:57;16.20;99.90
20929;DHT22;21895;47.072;15.132;2023-10-09T10:17:28;16.30;99.90
20929;DHT22;21895;47.072;15.132;2023-10-09T10:22:43;16.70;99.90
20929;DHT22;21895;47.072;15.132;2023-10-09T10:25:32;16.80;99.90
20929;DHT22;21895;47.072;15.132;2023-10-09T10:28:21;16.90;99.90
20929;DHT22;21895;47.072;15.132;2023-10-09T10:30:55;16.90;99.90
20929;DHT22;21895;47.072;15.132;2023-10-09T10:33:23;16.80;99.90
20929;DHT22;21895;47.072;15.132;2023-10-09T10:35:51;16.90;99.90
20929;DHT22;21895;47.072;15.132;2023-10-09T10:38:33;16.90;99.90
20929;DHT22;21895;47.072;15.132;2023-10-09T10:41:18;17.00;99.90
20929;DHT22;21895;47.072;15.132;2023-10-09T10:43:48;17.20;99.90
20929;DHT22;21895;47.072;15.132;2023-10-09T10:46:19;17.30;99.90
20929;DHT22;21895;47.072;15.132;2023-10-09T10:49:07;17.50;99.90
20929;DHT22;21895;47.072;15.132;2023-10-09T10:51:39;17.80;99.90
20929;DHT22;21895;47.072;15.132;2023-10-09T10:54:09;17.80;99.90
20929;DHT22;21895;47.072;15.132;2023-10-09T10:56:54;17.90;99.90
20929;DHT22;21895;47.072;15.132;2023-10-09T10:59:23;18.10;99.90
20929;DHT22;21895;47.072;15.132;2023-10-09T11:01:54;18.30;99.90
20929;DHT22;21895;47.072;15.132;2023-10-09T11:04:28;18.50;99.90
20929;DHT22;21895;47.072;15.132;2023-10-09T11:07:02;18.60;99.90
20929;DHT22;21895;47.072;15.132;2023-10-09T11:09:48;18.80;99.90
20929;DHT22;21895;47.072;15.132;2023-10-09T11:12:52;18.90;99.90
20929;DHT22;21895;47.072;15.132;2023-10-09T11:15:33;18.90;99.90
20929;DHT22;21895;47.072;15.132;2023-10-09T11:18:11;18.90;99.90
20929;DHT22;21895;47.072;15.132;2023-10-09T11:20:53;19.10;99.90
20929;DHT22;21895;47.072;15.132;2023-10-09T11:23:32;19.20;99.90
20929;DHT22;21895;47.072;15.132;2023-10-09T11:26:04;19.20;99.90
20929;DHT22;21895;47.072;15.132;2023-10-09T11:29:12;19.20;99.90
20929;DHT22;21895;47.072;15.132;2023-10-09T11:32:03;19.30;99.90
20929;DHT22;21895;47.072;15.132;2023-10-09T11:34:35;19.30;99.90
20929;DHT22;21895;47.072;15.132;2023-10-09T11:37:12;19.30;99.90
20929;DHT22;21895;47.072;15.132;2023-10-09T11:39:58;19.30;99.90
20929;DHT22;21895;47.072;15.132;2023-10-09T11:42:29;19.40;99.90
20929;DHT22;21895;47.072;15.132;2023-10-09T11:45:07;19.60;99.90
20929;DHT22;21895;47.072;15.132;2023-10-09T11:47:47;19.60;99.90
20929;DHT22;21895;47.072;15.132;2023-10-09T11:50:45;19.80;99.90
20929;DHT22;21895;47.072;15.132;2023-10-09T11:53:20;20.00;99.90
20929;DHT22;21895;47.072;15.132;2023-10-09T11:55:52;20.10;99.90
20929;DHT22;21895;47.072;15.132;2023-10-09T11:58:20;20.20;99.90
20929;DHT22;21895;47.072;15.132;2023-10-09T12:03:44;20.30;99.90
20929;DHT22;21895;47.072;15.132;2023-10-09T12:06:20;20.30;99.90
20929;DHT22;21895;47.072;15.132;2023-10-09T12:08:56;20.30;99.90
20929;DHT22;21895;47.072;15.132;2023-10-09T12:11:24;20.20;99.90
20929;DHT22;21895;47.072;15.132;2023-10-09T12:13:57;20.20;99.90
20929;DHT22;21895;47.072;15.132;2023-10-09T12:16:24;20.10;99.90
20929;DHT22;21895;47.072;15.132;2023-10-09T12:18:57;20.20;99.90
20929;DHT22;21895;47.072;15.132;2023-10-09T12:21:24;20.10;99.90
20929;DHT22;21895;47.072;15.132;2023-10-09T12:23:54;20.10;99.90
20929;DHT22;21895;47.072;15.132;2023-10-09T12:26:25;20.20;99.90
20929;DHT22;21895;47.072;15.132;2023-10-09T12:28:52;20.30;99.90
20929;DHT22;21895;47.072;15.132;2023-10-09T12:31:18;20.40;99.90
20929;DHT22;21895;47.072;15.132;2023-10-09T12:33:50;20.40;99.90
20929;DHT22;21895;47.072;15.132;2023-10-09T12:36:17;20.50;99.90
20929;DHT22;21895;47.072;15.132;2023-10-09T12:38:46;20.60;99.90
20929;DHT22;21895;47.072;15.132;2023-10-09T12:41:16;20.70;99.90
20929;DHT22;21895;47.072;15.132;2023-10-09T12:43:54;20.80;99.90
20929;DHT22;21895;47.072;15.132;2023-10-09T12:46:24;20.90;99.70
20929;DHT22;21895;47.072;15.132;2023-10-09T12:48:54;21.10;99.30
20929;DHT22;21895;47.072;15.132;2023-10-09T12:51:22;21.10;99.50
20929;DHT22;21895;47.072;15.132;2023-10-09T12:53:56;21.10;99.30
20929;DHT22;21895;47.072;15.132;2023-10-09T12:56:27;21.10;99.40
20929;DHT22;21895;47.072;15.132;2023-10-09T12:59:03;21.10;99.90
20929;DHT22;21895;47.072;15.132;2023-10-09T13:01:31;21.20;99.50
20929;DHT22;21895;47.072;15.132;2023-10-09T13:03:58;21.30;99.20
20929;DHT22;21895;47.072;15.132;2023-10-09T13:06:28;21.20;99.60
20929;DHT22;21895;47.072;15.132;2023-10-09T13:08:54;21.30;99.00
20929;DHT22;21895;47.072;15.132;2023-10-09T13:11:25;21.30;99.10
20929;DHT22;21895;47.072;15.132;2023-10-09T13:13:52;21.40;99.50
20929;DHT22;21895;47.072;15.132;2023-10-09T13:16:21;21.30;99.90
20929;DHT22;21895;47.072;15.132;2023-10-09T13:18:52;21.30;99.60
20929;DHT22;21895;47.072;15.132;2023-10-09T13:21:27;21.20;99.70
20929;DHT22;21895;47.072;15.132;2023-10-09T13:24:00;21.20;99.90
20929;DHT22;21895;47.072;15.132;2023-10-09T13:26:29;21.30;99.90
20929;DHT22;21895;47.072;15.132;2023-10-09T13:29:01;21.30;99.90
20929;DHT22;21895;47.072;15.132;2023-10-09T13:31:29;21.40;99.70
20929;DHT22;21895;47.072;15.132;2023-10-09T13:33:59;21.20;99.90
20929;DHT22;21895;47.072;15.132;2023-10-09T13:36:27;21.10;99.90
20929;DHT22;21895;47.072;15.132;2023-10-09T13:38:58;21.10;99.60
20929;DHT22;21895;47.072;15.132;2023-10-09T13:41:56;20.90;99.60
20929;DHT22;21895;47.072;15.132;2023-10-09T13:44:29;20.80;99.90
20929;DHT22;21895;47.072;15.132;2023-10-09T13:47:01;20.60;99.90
20929;DHT22;21895;47.072;15.132;2023-10-09T13:49:32;20.70;99.90
20929;DHT22;21895;47.072;15.132;2023-10-09T13:52:00;20.60;99.90
20929;DHT22;21895;47.072;15.132;2023-10-09T13:54:29;20.40;99.90
20929;DHT22;21895;47.072;15.132;2023-10-09T13:57:03;20.20;99.90
20929;DHT22;21895;47.072;15.132;2023-10-09T13:59:34;20.20;99.90
20929;DHT22;21895;47.072;15.132;2023-10-09T14:02:01;20.00;99.90
20929;DHT22;21895;47.072;15.132;2023-10-09T14:04:35;20.00;99.90
20929;DHT22;21895;47.072;15.132;2023-10-09T14:07:02;20.00;99.90
20929;DHT22;21895;47.072;15.132;2023-10-09T14:09:31;20.20;99.90
20929;DHT22;21895;47.072;15.132;2023-10-09T14:12:05;20.10;99.90
20929;DHT22;21895;47.072;15.132;2023-10-09T14:17:22;20.00;99.90
20929;DHT22;21895;47.072;15.132;2023-10-09T14:19:57;20.10;99.90
20929;DHT22;21895;47.072;15.132;2023-10-09T14:22:42;20.00;99.90
20929;DHT22;21895;47.072;15.132;2023-10-09T14:25:09;19.90;99.90
20929;DHT22;21895;47.072;15.132;2023-10-09T14:27:41;19.90;99.90
20929;DHT22;21895;47.072;15.132;2023-10-09T14:30:08;19.90;99.90
20929;DHT22;21895;47.072;15.132;2023-10-09T14:32:39;19.90;99.90
20929;DHT22;21895;47.072;15.132;2023-10-09T14:35:17;19.80;99.90
20929;DHT22;21895;47.072;15.132;2023-10-09T14:37:47;19.90;99.90
20929;DHT22;21895;47.072;15.132;2023-10-09T14:40:14;19.70;99.90
20929;DHT22;21895;47.072;15.132;2023-10-09T14:42:46;19.60;99.90
20929;DHT22;21895;47.072;15.132;2023-10-09T14:45:13;19.60;99.90
20929;DHT22;21895;47.072;15.132;2023-10-09T14:47:42;19.40;99.90
20929;DHT22;21895;47.072;15.132;2023-10-09T14:50:09;19.40;99.90
20929;DHT22;21895;47.072;15.132;2023-10-09T14:52:39;19.30;99.90
20929;DHT22;21895;47.072;15.132;2023-10-09T14:55:07;19.20;99.90
20929;DHT22;21895;47.072;15.132;2023-10-09T14:57:35;19.20;99.90
20929;DHT22;21895;47.072;15.132;2023-10-09T15:00:03;19.30;99.90
20929;DHT22;21895;47.072;15.132;2023-10-09T15:02:39;19.30;99.90
20929;DHT22;21895;47.072;15.132;2023-10-09T15:05:06;19.20;99.90
20929;DHT22;21895;47.072;15.132;2023-10-09T15:07:37;19.20;99.90
20929;DHT22;21895;47.072;15.132;2023-10-09T15:10:08;19.20;99.90
20929;DHT22;21895;47.072;15.132;2023-10-09T15:12:35;19.10;99.90
20929;DHT22;21895;47.072;15.132;2023-10-09T15:15:09;19.10;99.90
20929;DHT22;21895;47.072;15.132;2023-10-09T15:17:40;19.00;99.90
20929;DHT22;21895;47.072;15.132;2023-10-09T15:20:12;18.90;99.90
20929;DHT22;21895;47.072;15.132;2023-10-09T15:22:44;18.90;99.90
20929;DHT22;21895;47.072;15.132;2023-10-09T15:25:12;19.00;99.90
20929;DHT22;21895;47.072;15.132;2023-10-09T15:27:42;18.90;99.90
20929;DHT22;21895;47.072;15.132;2023-10-09T15:30:09;18.80;99.90
20929;DHT22;21895;47.072;15.132;2023-10-09T15:32:40;18.70;99.90
20929;DHT22;21895;47.072;15.132;2023-10-09T15:35:07;18.70;99.90
20929;DHT22;21895;47.072;15.132;2023-10-09T15:37:39;18.60;99.90
20929;DHT22;21895;47.072;15.132;2023-10-09T15:40:07;18.60;99.90
20929;DHT22;21895;47.072;15.132;2023-10-09T15:42:45;18.60;99.90
20929;DHT22;21895;47.072;15.132;2023-10-09T15:45:22;18.50;99.90
20929;DHT22;21895;47.072;15.132;2023-10-09T15:47:49;18.70;99.90
20929;DHT22;21895;47.072;15.132;2023-10-09T15:50:17;18.50;99.90
20929;DHT22;21895;47.072;15.132;2023-10-09T15:52:45;18.40;99.90
20929;DHT22;21895;47.072;15.132;2023-10-09T15:55:13;18.40;99.90
20929;DHT22;21895;47.072;15.132;2023-10-09T15:57:41;18.30;99.90
20929;DHT22;21895;47.072;15.132;2023-10-09T16:00:09;18.30;99.90
20929;DHT22;21895;47.072;15.132;2023-10-09T16:02:47;18.20;99.90
20929;DHT22;21895;47.072;15.132;2023-10-09T16:05:15;18.10;99.90
20929;DHT22;21895;47.072;15.132;2023-10-09T16:07:42;18.00;99.90
20929;DHT22;21895;47.072;15.132;2023-10-09T16:10:09;17.90;99.90
20929;DHT22;21895;47.072;15.132;2023-10-09T16:12:39;18.00;99.90
20929;DHT22;21895;47.072;15.132;2023-10-09T16:15:10;17.80;99.90
20929;DHT22;21895;47.072;15.132;2023-10-09T16:17:36;17.80;99.90